Hartford, Connecticut
Traffic Map
Current Weather Conditions
Hartford, Connecticut
Overcast
Overcast
41°
Feels Like: 37°
Wind Chill: 37° Ceiling: 6000
Heat Index: 41° Visibility: 10mi
Dew Point: 33° Wind: 6mph
Humidity: 73% Direction: 250° (WSW)
Pressure: 30.02in Gusts: 0mph
Raw Report DataKHFD 060053Z 25005KT 10SM OVC060 05/01 A3002 RMK AO2 SLP164 T00500006
Traffic Incident Summary
Active as of:
Severity:
Category:
InformationThere was an issue retrieving the traffic information for this location. Please try a different location or try again shortly.
Advertisements
Track Severe Weather on mobile